Meath Environmental Platform

Observations for Trim Market St

Time AQI Temp °C Hum % Pres Pa CO μg/m³ H₂S μg/m³ NO μg/m³ NO₂ μg/m³ O₃ μg/m³ SO₂ μg/m³ PM1 μg/m³ PM2.5 μg/m³ PM10 μg/m³
Wednesday 26 August 2026
18:43 2 24.9 52 56,114 0 0 1.09 14.2 95.61 0 4.99 6.97 9
18:42 3 24.9 52 56,152 0 0 1.15 13.64 97.69 0 4.28 6.97 9
18:41 3 24.9 52 56,140 0 0.35 1.05 15.09 98.4 0 4.28 6.47 8.26
18:40 2 25 52 56,298 0 0.88 1.04 14.74 94.84 0 3.56 6.98 9
18:39 2 25.1 52 56,400 0 2.1 1.05 17.52 93.51 0 4.99 8.52 11.2
18:38 2 25.1 52 56,567 0 1.44 1.06 17.56 95.76 0 7.13 9.04 13.41
18:37 2 25.1 52 56,727 0 0.66 1.04 16.04 93.86 0 5.7 8.53 13.42
18:36 2 25.1 52 56,806 0 0.56 1.16 14.99 98.63 0 4.99 7.51 10.47
18:35 2 25.1 52 56,772 0 1.06 1.21 15.63 97.18 0 4.99 7.51 9.74
18:31 2 25.3 51 57,256 0 2.49 1.52 21.91 130.23 0 4.99 7.53 9.74
18:30 2 25.3 51 57,450 0 2.76 1.56 23.24 117.99 0 4.99 7.54 11.96
18:29 2 25.3 51 57,590 0 2.78 1.55 23.01 137.42 0 4.99 7.02 9.74
18:21 2 25.7 50 59,374 0 3.65 1.16 20.89 145.58 0 3.56 8.11 12
18:18 2 25.8 50 60,017 0 4.55 1.08 20.7 151.7 0 4.28 7.62 9.77
18:17 2 25.9 49 60,341 0 5.45 1.04 22.92 142.66 0 4.28 7.63 10.52
18:15 2 26 49 61,095 0 4.64 1.02 20.93 147.93 0 3.56 7.13 9.78
18:13 2 26.2 49 61,761 0 4.56 1.12 20.46 146.99 0 3.56 6.12 8.28
18:12 2 26.3 49 62,047 0 3.14 1.2 20.22 140.11 0 4.28 6.64 8.28
18:10 2 26.4 48 62,533 0 5.29 1.16 22.81 134.86 0 4.28 6.66 9.04
18:09 2 26.5 48 62,811 0 6.09 1.22 28.06 148.32 0 4.28 7.71 11.31